sensor_id;sensor_type;location;lat;lon;timestamp;temperature;humidity
30280;DHT22;17097;50.916;5.344;2023-07-02T00:01:54;18.20;99.90
30280;DHT22;17097;50.916;5.344;2023-07-02T00:04:20;18.20;99.90
30280;DHT22;17097;50.916;5.344;2023-07-02T00:06:48;18.20;99.90
30280;DHT22;17097;50.916;5.344;2023-07-02T00:09:15;18.20;99.90
30280;DHT22;17097;50.916;5.344;2023-07-02T00:11:43;18.20;99.90
30280;DHT22;17097;50.916;5.344;2023-07-02T00:14:13;18.10;99.90
30280;DHT22;17097;50.916;5.344;2023-07-02T00:16:43;18.20;99.90
30280;DHT22;17097;50.916;5.344;2023-07-02T00:19:11;18.20;99.90
30280;DHT22;17097;50.916;5.344;2023-07-02T00:21:37;18.20;99.90
30280;DHT22;17097;50.916;5.344;2023-07-02T00:24:04;18.10;99.90
30280;DHT22;17097;50.916;5.344;2023-07-02T00:26:32;18.10;99.90
30280;DHT22;17097;50.916;5.344;2023-07-02T00:28:59;18.20;99.90
30280;DHT22;17097;50.916;5.344;2023-07-02T00:31:25;18.10;99.90
30280;DHT22;17097;50.916;5.344;2023-07-02T00:33:51;18.10;99.90
30280;DHT22;17097;50.916;5.344;2023-07-02T00:36:17;18.10;99.90
30280;DHT22;17097;50.916;5.344;2023-07-02T00:38:47;18.00;99.90
30280;DHT22;17097;50.916;5.344;2023-07-02T00:41:16;18.00;99.90
30280;DHT22;17097;50.916;5.344;2023-07-02T00:43:42;18.00;99.90
30280;DHT22;17097;50.916;5.344;2023-07-02T00:46:14;18.00;99.90
30280;DHT22;17097;50.916;5.344;2023-07-02T00:48:47;18.00;99.90
30280;DHT22;17097;50.916;5.344;2023-07-02T00:51:15;18.00;99.90
30280;DHT22;17097;50.916;5.344;2023-07-02T00:53:43;17.90;99.90
30280;DHT22;17097;50.916;5.344;2023-07-02T00:56:09;17.90;99.90
30280;DHT22;17097;50.916;5.344;2023-07-02T00:58:39;18.00;99.90
30280;DHT22;17097;50.916;5.344;2023-07-02T01:01:06;17.90;99.90
30280;DHT22;17097;50.916;5.344;2023-07-02T01:03:32;17.90;99.90
30280;DHT22;17097;50.916;5.344;2023-07-02T01:06:01;17.90;99.90
30280;DHT22;17097;50.916;5.344;2023-07-02T01:08:29;17.90;99.90
30280;DHT22;17097;50.916;5.344;2023-07-02T01:10:55;17.90;99.90
30280;DHT22;17097;50.916;5.344;2023-07-02T01:13:22;17.90;99.90
30280;DHT22;17097;50.916;5.344;2023-07-02T01:15:49;17.90;99.90
30280;DHT22;17097;50.916;5.344;2023-07-02T01:18:16;17.90;99.90
30280;DHT22;17097;50.916;5.344;2023-07-02T01:20:43;17.80;99.90
30280;DHT22;17097;50.916;5.344;2023-07-02T01:23:09;17.80;99.90
30280;DHT22;17097;50.916;5.344;2023-07-02T01:25:37;17.80;99.90
30280;DHT22;17097;50.916;5.344;2023-07-02T01:28:03;17.80;99.90
30280;DHT22;17097;50.916;5.344;2023-07-02T01:30:29;17.70;99.90
30280;DHT22;17097;50.916;5.344;2023-07-02T01:32:55;17.90;99.90
30280;DHT22;17097;50.916;5.344;2023-07-02T01:35:22;17.90;99.90
30280;DHT22;17097;50.916;5.344;2023-07-02T01:37:48;17.90;99.90
30280;DHT22;17097;50.916;5.344;2023-07-02T01:40:14;17.90;99.90
30280;DHT22;17097;50.916;5.344;2023-07-02T01:42:40;17.80;99.90
30280;DHT22;17097;50.916;5.344;2023-07-02T01:45:06;17.90;99.90
30280;DHT22;17097;50.916;5.344;2023-07-02T01:47:32;17.90;99.90
30280;DHT22;17097;50.916;5.344;2023-07-02T01:49:59;17.80;99.90
30280;DHT22;17097;50.916;5.344;2023-07-02T01:52:25;17.90;99.90
30280;DHT22;17097;50.916;5.344;2023-07-02T01:54:53;17.80;99.90
30280;DHT22;17097;50.916;5.344;2023-07-02T01:57:18;17.70;99.90
30280;DHT22;17097;50.916;5.344;2023-07-02T01:59:44;17.60;99.90
30280;DHT22;17097;50.916;5.344;2023-07-02T02:02:11;17.60;99.90
30280;DHT22;17097;50.916;5.344;2023-07-02T02:04:37;17.70;99.90
30280;DHT22;17097;50.916;5.344;2023-07-02T02:07:03;17.70;99.90
30280;DHT22;17097;50.916;5.344;2023-07-02T02:09:29;17.70;99.90
30280;DHT22;17097;50.916;5.344;2023-07-02T02:11:57;17.50;99.90
30280;DHT22;17097;50.916;5.344;2023-07-02T02:14:23;17.50;99.90
30280;DHT22;17097;50.916;5.344;2023-07-02T02:16:50;17.60;99.90
30280;DHT22;17097;50.916;5.344;2023-07-02T02:19:16;17.60;99.90
30280;DHT22;17097;50.916;5.344;2023-07-02T02:21:44;17.60;99.90
30280;DHT22;17097;50.916;5.344;2023-07-02T02:24:10;17.60;99.90
30280;DHT22;17097;50.916;5.344;2023-07-02T02:26:36;17.60;99.90
30280;DHT22;17097;50.916;5.344;2023-07-02T02:29:02;17.50;99.90
30280;DHT22;17097;50.916;5.344;2023-07-02T02:31:28;17.60;99.90
30280;DHT22;17097;50.916;5.344;2023-07-02T02:33:54;17.70;99.90
30280;DHT22;17097;50.916;5.344;2023-07-02T02:36:20;17.70;99.90
30280;DHT22;17097;50.916;5.344;2023-07-02T02:38:49;17.70;99.90
30280;DHT22;17097;50.916;5.344;2023-07-02T02:41:15;17.60;99.90
30280;DHT22;17097;50.916;5.344;2023-07-02T02:43:41;17.60;99.90
30280;DHT22;17097;50.916;5.344;2023-07-02T02:46:09;17.70;99.90
30280;DHT22;17097;50.916;5.344;2023-07-02T02:48:34;17.60;99.90
30280;DHT22;17097;50.916;5.344;2023-07-02T02:51:03;17.60;99.90
30280;DHT22;17097;50.916;5.344;2023-07-02T02:53:29;17.60;99.90
30280;DHT22;17097;50.916;5.344;2023-07-02T02:55:55;17.60;99.90
30280;DHT22;17097;50.916;5.344;2023-07-02T02:58:21;17.70;99.90
30280;DHT22;17097;50.916;5.344;2023-07-02T03:00:48;17.70;99.90
30280;DHT22;17097;50.916;5.344;2023-07-02T03:03:14;17.60;99.90
30280;DHT22;17097;50.916;5.344;2023-07-02T03:05:40;17.70;99.90
30280;DHT22;17097;50.916;5.344;2023-07-02T03:08:06;17.70;99.90
30280;DHT22;17097;50.916;5.344;2023-07-02T03:10:32;17.70;99.90
30280;DHT22;17097;50.916;5.344;2023-07-02T03:12:58;17.60;99.90
30280;DHT22;17097;50.916;5.344;2023-07-02T03:15:24;17.60;99.90
30280;DHT22;17097;50.916;5.344;2023-07-02T03:17:53;17.60;99.90
30280;DHT22;17097;50.916;5.344;2023-07-02T03:20:19;17.60;99.90
30280;DHT22;17097;50.916;5.344;2023-07-02T03:22:45;17.70;99.90
30280;DHT22;17097;50.916;5.344;2023-07-02T03:25:11;17.60;99.90
30280;DHT22;17097;50.916;5.344;2023-07-02T03:27:37;17.60;99.90
30280;DHT22;17097;50.916;5.344;2023-07-02T03:30:03;17.60;99.90
30280;DHT22;17097;50.916;5.344;2023-07-02T03:32:29;17.50;99.90
30280;DHT22;17097;50.916;5.344;2023-07-02T03:34:55;17.50;99.90
30280;DHT22;17097;50.916;5.344;2023-07-02T03:37:23;17.60;99.90
30280;DHT22;17097;50.916;5.344;2023-07-02T03:39:49;17.60;99.90
30280;DHT22;17097;50.916;5.344;2023-07-02T03:42:16;17.50;99.90
30280;DHT22;17097;50.916;5.344;2023-07-02T03:44:42;17.60;99.90
30280;DHT22;17097;50.916;5.344;2023-07-02T03:47:08;17.70;99.90
30280;DHT22;17097;50.916;5.344;2023-07-02T03:49:34;17.70;99.90
30280;DHT22;17097;50.916;5.344;2023-07-02T03:52:02;17.60;99.90
30280;DHT22;17097;50.916;5.344;2023-07-02T03:54:29;17.60;99.90
30280;DHT22;17097;50.916;5.344;2023-07-02T03:56:55;17.60;99.90
30280;DHT22;17097;50.916;5.344;2023-07-02T03:59:21;17.70;99.90
30280;DHT22;17097;50.916;5.344;2023-07-02T04:01:47;17.60;99.90
30280;DHT22;17097;50.916;5.344;2023-07-02T04:04:13;17.70;99.90
30280;DHT22;17097;50.916;5.344;2023-07-02T04:06:39;17.70;99.90
30280;DHT22;17097;50.916;5.344;2023-07-02T04:09:08;17.70;99.90
30280;DHT22;17097;50.916;5.344;2023-07-02T04:11:34;17.70;99.90
30280;DHT22;17097;50.916;5.344;2023-07-02T04:14:03;17.70;99.90
30280;DHT22;17097;50.916;5.344;2023-07-02T04:16:29;17.50;99.90
30280;DHT22;17097;50.916;5.344;2023-07-02T04:18:55;17.60;99.90
30280;DHT22;17097;50.916;5.344;2023-07-02T04:21:21;17.60;99.90
30280;DHT22;17097;50.916;5.344;2023-07-02T04:23:46;17.50;99.90
30280;DHT22;17097;50.916;5.344;2023-07-02T04:26:12;17.50;99.90
30280;DHT22;17097;50.916;5.344;2023-07-02T04:28:38;17.50;99.90
30280;DHT22;17097;50.916;5.344;2023-07-02T04:31:04;17.60;99.90
30280;DHT22;17097;50.916;5.344;2023-07-02T04:33:32;17.60;99.90
30280;DHT22;17097;50.916;5.344;2023-07-02T04:36:04;17.60;99.90
30280;DHT22;17097;50.916;5.344;2023-07-02T04:38:30;17.60;99.90
30280;DHT22;17097;50.916;5.344;2023-07-02T04:40:56;17.50;99.90
30280;DHT22;17097;50.916;5.344;2023-07-02T04:43:33;17.50;99.90
30280;DHT22;17097;50.916;5.344;2023-07-02T04:46:00;17.60;99.90
30280;DHT22;17097;50.916;5.344;2023-07-02T04:48:28;17.70;99.90
30280;DHT22;17097;50.916;5.344;2023-07-02T04:50:54;17.60;99.90
30280;DHT22;17097;50.916;5.344;2023-07-02T04:53:23;17.60;99.90
30280;DHT22;17097;50.916;5.344;2023-07-02T04:55:51;17.70;99.90
30280;DHT22;17097;50.916;5.344;2023-07-02T04:58:20;17.80;99.90
30280;DHT22;17097;50.916;5.344;2023-07-02T05:00:46;17.80;99.90
30280;DHT22;17097;50.916;5.344;2023-07-02T05:03:12;17.70;99.90
30280;DHT22;17097;50.916;5.344;2023-07-02T05:05:42;17.70;99.90
30280;DHT22;17097;50.916;5.344;2023-07-02T05:08:08;17.80;99.90
30280;DHT22;17097;50.916;5.344;2023-07-02T05:10:34;17.80;99.90
30280;DHT22;17097;50.916;5.344;2023-07-02T05:13:00;17.70;99.90
30280;DHT22;17097;50.916;5.344;2023-07-02T05:15:25;17.70;99.90
30280;DHT22;17097;50.916;5.344;2023-07-02T05:17:51;17.70;99.90
30280;DHT22;17097;50.916;5.344;2023-07-02T05:20:17;17.70;99.90
30280;DHT22;17097;50.916;5.344;2023-07-02T05:22:43;17.80;99.90
30280;DHT22;17097;50.916;5.344;2023-07-02T05:25:11;17.70;99.90
30280;DHT22;17097;50.916;5.344;2023-07-02T05:27:40;17.80;99.90
30280;DHT22;17097;50.916;5.344;2023-07-02T05:30:06;17.90;99.90
30280;DHT22;17097;50.916;5.344;2023-07-02T05:32:34;17.90;99.90
30280;DHT22;17097;50.916;5.344;2023-07-02T05:34:59;17.80;99.90
30280;DHT22;17097;50.916;5.344;2023-07-02T05:37:28;17.80;99.90
30280;DHT22;17097;50.916;5.344;2023-07-02T05:39:54;17.90;99.90
30280;DHT22;17097;50.916;5.344;2023-07-02T05:42:19;17.90;99.90
30280;DHT22;17097;50.916;5.344;2023-07-02T05:44:47;17.90;99.90
30280;DHT22;17097;50.916;5.344;2023-07-02T05:47:13;18.00;99.90
30280;DHT22;17097;50.916;5.344;2023-07-02T05:49:38;18.20;99.90
30280;DHT22;17097;50.916;5.344;2023-07-02T05:52:06;18.20;99.90
30280;DHT22;17097;50.916;5.344;2023-07-02T05:54:32;18.20;99.90
30280;DHT22;17097;50.916;5.344;2023-07-02T05:56:57;18.00;99.90
30280;DHT22;17097;50.916;5.344;2023-07-02T05:59:23;18.10;99.90
30280;DHT22;17097;50.916;5.344;2023-07-02T06:01:49;18.30;99.90
30280;DHT22;17097;50.916;5.344;2023-07-02T06:04:15;18.40;99.90
30280;DHT22;17097;50.916;5.344;2023-07-02T06:06:41;18.40;99.90
30280;DHT22;17097;50.916;5.344;2023-07-02T06:09:07;18.30;99.90
30280;DHT22;17097;50.916;5.344;2023-07-02T06:11:34;18.40;99.90
30280;DHT22;17097;50.916;5.344;2023-07-02T06:14:00;18.40;99.90
30280;DHT22;17097;50.916;5.344;2023-07-02T06:16:25;18.50;99.90
30280;DHT22;17097;50.916;5.344;2023-07-02T06:18:54;18.40;99.90
30280;DHT22;17097;50.916;5.344;2023-07-02T06:21:20;18.40;99.90
30280;DHT22;17097;50.916;5.344;2023-07-02T06:23:46;18.50;99.90
30280;DHT22;17097;50.916;5.344;2023-07-02T06:26:12;18.60;99.90
30280;DHT22;17097;50.916;5.344;2023-07-02T06:28:38;18.60;99.90
30280;DHT22;17097;50.916;5.344;2023-07-02T06:31:07;18.60;99.90
30280;DHT22;17097;50.916;5.344;2023-07-02T06:33:33;18.70;99.90
30280;DHT22;17097;50.916;5.344;2023-07-02T06:35:59;18.60;99.90
30280;DHT22;17097;50.916;5.344;2023-07-02T06:38:28;18.70;99.90
30280;DHT22;17097;50.916;5.344;2023-07-02T06:40:53;18.80;99.90
30280;DHT22;17097;50.916;5.344;2023-07-02T06:43:19;18.90;99.90
30280;DHT22;17097;50.916;5.344;2023-07-02T06:45:45;18.80;99.90
30280;DHT22;17097;50.916;5.344;2023-07-02T06:48:11;18.90;99.90
30280;DHT22;17097;50.916;5.344;2023-07-02T06:50:43;19.00;99.90
30280;DHT22;17097;50.916;5.344;2023-07-02T06:53:09;18.70;99.90
30280;DHT22;17097;50.916;5.344;2023-07-02T06:55:35;18.80;99.90
30280;DHT22;17097;50.916;5.344;2023-07-02T06:58:00;18.80;99.90
30280;DHT22;17097;50.916;5.344;2023-07-02T07:00:30;19.00;99.90
30280;DHT22;17097;50.916;5.344;2023-07-02T07:02:56;19.10;99.90
30280;DHT22;17097;50.916;5.344;2023-07-02T07:05:25;19.20;99.90
30280;DHT22;17097;50.916;5.344;2023-07-02T07:07:51;19.40;99.90
30280;DHT22;17097;50.916;5.344;2023-07-02T07:10:17;19.50;99.90
30280;DHT22;17097;50.916;5.344;2023-07-02T07:12:43;19.60;99.90
30280;DHT22;17097;50.916;5.344;2023-07-02T07:15:09;19.60;99.90
30280;DHT22;17097;50.916;5.344;2023-07-02T07:17:36;19.60;99.90
30280;DHT22;17097;50.916;5.344;2023-07-02T07:20:02;19.70;99.90
30280;DHT22;17097;50.916;5.344;2023-07-02T07:22:30;19.70;99.90
30280;DHT22;17097;50.916;5.344;2023-07-02T07:24:56;19.70;99.90
30280;DHT22;17097;50.916;5.344;2023-07-02T07:27:24;19.70;99.90
30280;DHT22;17097;50.916;5.344;2023-07-02T07:29:54;19.80;99.90
30280;DHT22;17097;50.916;5.344;2023-07-02T07:32:21;19.50;99.90
30280;DHT22;17097;50.916;5.344;2023-07-02T07:34:47;19.70;99.90
30280;DHT22;17097;50.916;5.344;2023-07-02T07:37:12;19.90;99.90
30280;DHT22;17097;50.916;5.344;2023-07-02T07:39:38;20.00;99.90
30280;DHT22;17097;50.916;5.344;2023-07-02T07:42:04;20.20;99.90
30280;DHT22;17097;50.916;5.344;2023-07-02T07:44:32;20.20;99.90
30280;DHT22;17097;50.916;5.344;2023-07-02T07:46:58;20.20;99.90
30280;DHT22;17097;50.916;5.344;2023-07-02T07:49:24;20.40;99.90
30280;DHT22;17097;50.916;5.344;2023-07-02T07:51:50;20.50;99.90
30280;DHT22;17097;50.916;5.344;2023-07-02T07:54:16;20.60;99.90
30280;DHT22;17097;50.916;5.344;2023-07-02T07:56:42;20.60;99.90
30280;DHT22;17097;50.916;5.344;2023-07-02T07:59:08;20.70;99.90
30280;DHT22;17097;50.916;5.344;2023-07-02T08:01:36;20.80;99.90
30280;DHT22;17097;50.916;5.344;2023-07-02T08:04:04;20.60;99.90
30280;DHT22;17097;50.916;5.344;2023-07-02T08:06:31;20.70;99.90
30280;DHT22;17097;50.916;5.344;2023-07-02T08:08:57;20.70;99.90
30280;DHT22;17097;50.916;5.344;2023-07-02T08:11:25;20.70;99.90
30280;DHT22;17097;50.916;5.344;2023-07-02T08:13:53;20.80;99.90
30280;DHT22;17097;50.916;5.344;2023-07-02T08:16:19;20.90;99.90
30280;DHT22;17097;50.916;5.344;2023-07-02T08:18:45;20.90;99.90
30280;DHT22;17097;50.916;5.344;2023-07-02T08:21:13;20.80;99.90
30280;DHT22;17097;50.916;5.344;2023-07-02T08:23:41;20.80;99.90
30280;DHT22;17097;50.916;5.344;2023-07-02T08:26:07;20.80;99.90
30280;DHT22;17097;50.916;5.344;2023-07-02T08:28:34;20.70;99.90
30280;DHT22;17097;50.916;5.344;2023-07-02T08:30:59;20.70;99.90
30280;DHT22;17097;50.916;5.344;2023-07-02T08:33:25;20.80;99.90
30280;DHT22;17097;50.916;5.344;2023-07-02T08:35:53;20.70;99.90
30280;DHT22;17097;50.916;5.344;2023-07-02T08:38:19;20.50;99.90
30280;DHT22;17097;50.916;5.344;2023-07-02T08:40:45;20.40;99.90
30280;DHT22;17097;50.916;5.344;2023-07-02T08:43:11;20.60;99.90
30280;DHT22;17097;50.916;5.344;2023-07-02T08:45:37;20.60;99.90
30280;DHT22;17097;50.916;5.344;2023-07-02T08:48:05;20.60;99.90
30280;DHT22;17097;50.916;5.344;2023-07-02T08:50:34;20.70;99.90
30280;DHT22;17097;50.916;5.344;2023-07-02T08:52:59;20.90;99.90
30280;DHT22;17097;50.916;5.344;2023-07-02T08:55:25;21.30;99.90
30280;DHT22;17097;50.916;5.344;2023-07-02T08:57:53;21.50;99.90
30280;DHT22;17097;50.916;5.344;2023-07-02T09:00:20;21.90;99.90
30280;DHT22;17097;50.916;5.344;2023-07-02T09:02:46;22.00;99.90
30280;DHT22;17097;50.916;5.344;2023-07-02T09:05:13;22.10;99.90
30280;DHT22;17097;50.916;5.344;2023-07-02T09:07:49;22.00;99.90
30280;DHT22;17097;50.916;5.344;2023-07-02T09:10:28;22.00;99.90
30280;DHT22;17097;50.916;5.344;2023-07-02T09:13:04;21.70;99.90
30280;DHT22;17097;50.916;5.344;2023-07-02T09:15:40;21.70;99.90
30280;DHT22;17097;50.916;5.344;2023-07-02T09:18:20;21.80;99.90
30280;DHT22;17097;50.916;5.344;2023-07-02T09:20:46;21.50;99.90
30280;DHT22;17097;50.916;5.344;2023-07-02T09:23:14;21.60;99.90
30280;DHT22;17097;50.916;5.344;2023-07-02T09:25:40;21.70;99.90
30280;DHT22;17097;50.916;5.344;2023-07-02T09:28:18;22.10;99.90
30280;DHT22;17097;50.916;5.344;2023-07-02T09:30:54;22.50;99.90
30280;DHT22;17097;50.916;5.344;2023-07-02T09:33:27;22.60;99.90
30280;DHT22;17097;50.916;5.344;2023-07-02T09:35:54;22.50;99.90
30280;DHT22;17097;50.916;5.344;2023-07-02T09:38:21;22.30;99.90
30280;DHT22;17097;50.916;5.344;2023-07-02T09:40:51;22.20;99.90
30280;DHT22;17097;50.916;5.344;2023-07-02T09:43:18;22.40;99.90
30280;DHT22;17097;50.916;5.344;2023-07-02T09:45:48;23.00;99.90
30280;DHT22;17097;50.916;5.344;2023-07-02T09:48:17;23.60;99.90
30280;DHT22;17097;50.916;5.344;2023-07-02T09:50:48;24.00;99.50
30280;DHT22;17097;50.916;5.344;2023-07-02T09:53:14;24.40;97.30
30280;DHT22;17097;50.916;5.344;2023-07-02T09:55:46;24.70;95.70
30280;DHT22;17097;50.916;5.344;2023-07-02T09:58:13;24.70;94.50
30280;DHT22;17097;50.916;5.344;2023-07-02T10:00:39;25.30;92.30
30280;DHT22;17097;50.916;5.344;2023-07-02T10:03:05;25.20;91.40
30280;DHT22;17097;50.916;5.344;2023-07-02T10:05:33;25.00;92.20
30280;DHT22;17097;50.916;5.344;2023-07-02T10:08:12;24.70;91.90
30280;DHT22;17097;50.916;5.344;2023-07-02T10:10:39;24.80;93.30
30280;DHT22;17097;50.916;5.344;2023-07-02T10:13:05;24.80;92.30
30280;DHT22;17097;50.916;5.344;2023-07-02T10:15:32;24.90;91.70
30280;DHT22;17097;50.916;5.344;2023-07-02T10:18:06;24.60;92.10
30280;DHT22;17097;50.916;5.344;2023-07-02T10:20:40;24.60;92.90
30280;DHT22;17097;50.916;5.344;2023-07-02T10:23:08;24.30;92.80
30280;DHT22;17097;50.916;5.344;2023-07-02T10:25:38;24.00;95.10
30280;DHT22;17097;50.916;5.344;2023-07-02T10:28:20;23.40;94.20
30280;DHT22;17097;50.916;5.344;2023-07-02T10:30:52;23.20;95.90
30280;DHT22;17097;50.916;5.344;2023-07-02T10:33:21;23.00;97.50
30280;DHT22;17097;50.916;5.344;2023-07-02T10:35:48;22.90;99.00
30280;DHT22;17097;50.916;5.344;2023-07-02T10:38:24;23.00;99.00
30280;DHT22;17097;50.916;5.344;2023-07-02T10:40:58;23.10;99.10
30280;DHT22;17097;50.916;5.344;2023-07-02T10:43:29;23.40;99.30
30280;DHT22;17097;50.916;5.344;2023-07-02T10:45:58;23.70;99.20
30280;DHT22;17097;50.916;5.344;2023-07-02T10:48:28;24.30;99.10
30280;DHT22;17097;50.916;5.344;2023-07-02T10:50:54;24.30;97.80
30280;DHT22;17097;50.916;5.344;2023-07-02T10:53:20;24.10;98.10
30280;DHT22;17097;50.916;5.344;2023-07-02T10:55:54;24.00;98.50
30280;DHT22;17097;50.916;5.344;2023-07-02T10:58:20;23.90;97.30
30280;DHT22;17097;50.916;5.344;2023-07-02T11:00:51;24.00;98.30
30280;DHT22;17097;50.916;5.344;2023-07-02T11:03:25;23.70;98.10
30280;DHT22;17097;50.916;5.344;2023-07-02T11:05:52;23.80;98.60
30280;DHT22;17097;50.916;5.344;2023-07-02T11:08:19;23.80;98.70
30280;DHT22;17097;50.916;5.344;2023-07-02T11:10:46;23.70;98.60
30280;DHT22;17097;50.916;5.344;2023-07-02T11:13:13;23.70;98.00
30280;DHT22;17097;50.916;5.344;2023-07-02T11:15:39;23.60;98.50
30280;DHT22;17097;50.916;5.344;2023-07-02T11:18:14;23.90;99.90
30280;DHT22;17097;50.916;5.344;2023-07-02T11:20:42;24.20;99.10
30280;DHT22;17097;50.916;5.344;2023-07-02T11:23:25;24.40;98.40
30280;DHT22;17097;50.916;5.344;2023-07-02T11:26:01;24.40;97.60
30280;DHT22;17097;50.916;5.344;2023-07-02T11:28:29;24.30;97.90
30280;DHT22;17097;50.916;5.344;2023-07-02T11:30:59;24.00;96.80
30280;DHT22;17097;50.916;5.344;2023-07-02T11:33:39;23.80;97.80
30280;DHT22;17097;50.916;5.344;2023-07-02T11:36:07;23.90;98.90
30280;DHT22;17097;50.916;5.344;2023-07-02T11:38:34;23.70;98.40
30280;DHT22;17097;50.916;5.344;2023-07-02T11:41:03;23.40;99.10
30280;DHT22;17097;50.916;5.344;2023-07-02T11:43:29;23.00;99.40
30280;DHT22;17097;50.916;5.344;2023-07-02T11:45:54;23.20;99.90
30280;DHT22;17097;50.916;5.344;2023-07-02T11:48:23;23.10;99.90
30280;DHT22;17097;50.916;5.344;2023-07-02T11:50:49;23.00;99.90
30280;DHT22;17097;50.916;5.344;2023-07-02T11:53:15;23.30;99.90
30280;DHT22;17097;50.916;5.344;2023-07-02T11:55:40;23.70;99.90
30280;DHT22;17097;50.916;5.344;2023-07-02T11:58:06;23.90;99.60
30280;DHT22;17097;50.916;5.344;2023-07-02T12:00:32;24.10;99.90
30280;DHT22;17097;50.916;5.344;2023-07-02T12:02:58;24.30;99.60
30280;DHT22;17097;50.916;5.344;2023-07-02T12:05:24;24.30;99.90
30280;DHT22;17097;50.916;5.344;2023-07-02T12:07:55;24.50;99.90
30280;DHT22;17097;50.916;5.344;2023-07-02T12:10:21;24.50;99.50
30280;DHT22;17097;50.916;5.344;2023-07-02T12:12:46;24.60;98.60
30280;DHT22;17097;50.916;5.344;2023-07-02T12:15:14;24.70;97.60
30280;DHT22;17097;50.916;5.344;2023-07-02T12:17:40;24.50;98.50
30280;DHT22;17097;50.916;5.344;2023-07-02T12:20:09;24.20;98.10
30280;DHT22;17097;50.916;5.344;2023-07-02T12:22:35;23.90;98.90
30280;DHT22;17097;50.916;5.344;2023-07-02T12:25:01;23.70;98.80
30280;DHT22;17097;50.916;5.344;2023-07-02T12:27:27;23.30;99.90
30280;DHT22;17097;50.916;5.344;2023-07-02T12:29:53;23.30;99.90
30280;DHT22;17097;50.916;5.344;2023-07-02T12:32:20;23.20;99.10
30280;DHT22;17097;50.916;5.344;2023-07-02T12:34:45;23.40;99.90
30280;DHT22;17097;50.916;5.344;2023-07-02T12:37:11;23.50;99.90
30280;DHT22;17097;50.916;5.344;2023-07-02T12:39:39;23.50;99.90
30280;DHT22;17097;50.916;5.344;2023-07-02T12:42:05;23.90;99.90
30280;DHT22;17097;50.916;5.344;2023-07-02T12:44:33;23.60;99.50
30280;DHT22;17097;50.916;5.344;2023-07-02T12:46:59;23.40;97.50
30280;DHT22;17097;50.916;5.344;2023-07-02T12:49:30;23.40;99.50
30280;DHT22;17097;50.916;5.344;2023-07-02T12:51:55;23.80;98.60
30280;DHT22;17097;50.916;5.344;2023-07-02T12:54:22;23.90;97.70
30280;DHT22;17097;50.916;5.344;2023-07-02T12:56:48;23.90;96.20
30280;DHT22;17097;50.916;5.344;2023-07-02T12:59:14;23.70;98.10
30280;DHT22;17097;50.916;5.344;2023-07-02T13:01:40;23.60;97.80
30280;DHT22;17097;50.916;5.344;2023-07-02T13:04:06;23.70;97.10
30280;DHT22;17097;50.916;5.344;2023-07-02T13:06:32;23.80;97.10
30280;DHT22;17097;50.916;5.344;2023-07-02T13:09:08;23.80;96.90
30280;DHT22;17097;50.916;5.344;2023-07-02T13:11:36;24.00;98.50
30280;DHT22;17097;50.916;5.344;2023-07-02T13:14:03;24.00;97.00
30280;DHT22;17097;50.916;5.344;2023-07-02T13:16:29;24.20;97.00
30280;DHT22;17097;50.916;5.344;2023-07-02T13:18:56;24.20;97.20
30280;DHT22;17097;50.916;5.344;2023-07-02T13:21:26;24.20;98.10
30280;DHT22;17097;50.916;5.344;2023-07-02T13:23:53;24.30;96.60
30280;DHT22;17097;50.916;5.344;2023-07-02T13:26:19;24.60;98.70
30280;DHT22;17097;50.916;5.344;2023-07-02T13:28:46;24.90;97.60
30280;DHT22;17097;50.916;5.344;2023-07-02T13:31:16;25.10;98.10
30280;DHT22;17097;50.916;5.344;2023-07-02T13:33:42;25.40;96.80
30280;DHT22;17097;50.916;5.344;2023-07-02T13:36:08;25.60;96.10
30280;DHT22;17097;50.916;5.344;2023-07-02T13:38:34;25.50;96.30
30280;DHT22;17097;50.916;5.344;2023-07-02T13:41:00;25.20;93.70
30280;DHT22;17097;50.916;5.344;2023-07-02T13:43:27;25.10;92.30
30280;DHT22;17097;50.916;5.344;2023-07-02T13:45:53;24.90;93.80
30280;DHT22;17097;50.916;5.344;2023-07-02T13:48:19;25.00;94.10
30280;DHT22;17097;50.916;5.344;2023-07-02T13:50:47;25.30;94.70
30280;DHT22;17097;50.916;5.344;2023-07-02T13:53:12;25.30;91.50
30280;DHT22;17097;50.916;5.344;2023-07-02T13:55:38;25.30;92.00
30280;DHT22;17097;50.916;5.344;2023-07-02T13:58:08;24.90;93.30
30280;DHT22;17097;50.916;5.344;2023-07-02T14:00:34;25.10;93.30
30280;DHT22;17097;50.916;5.344;2023-07-02T14:03:00;25.20;92.60
30280;DHT22;17097;50.916;5.344;2023-07-02T14:05:26;25.20;91.70
30280;DHT22;17097;50.916;5.344;2023-07-02T14:07:52;24.90;93.90
30280;DHT22;17097;50.916;5.344;2023-07-02T14:10:18;25.10;94.00
30280;DHT22;17097;50.916;5.344;2023-07-02T14:12:44;25.10;92.50
30280;DHT22;17097;50.916;5.344;2023-07-02T14:15:11;25.40;93.60
30280;DHT22;17097;50.916;5.344;2023-07-02T14:17:39;25.30;94.00
30280;DHT22;17097;50.916;5.344;2023-07-02T14:20:06;25.70;94.20
30280;DHT22;17097;50.916;5.344;2023-07-02T14:22:33;25.80;94.20
30280;DHT22;17097;50.916;5.344;2023-07-02T14:24:58;25.90;94.70
30280;DHT22;17097;50.916;5.344;2023-07-02T14:27:24;25.90;94.30
30280;DHT22;17097;50.916;5.344;2023-07-02T14:29:50;25.50;92.90
30280;DHT22;17097;50.916;5.344;2023-07-02T14:32:17;25.60;92.30
30280;DHT22;17097;50.916;5.344;2023-07-02T14:34:43;25.60;92.90
30280;DHT22;17097;50.916;5.344;2023-07-02T14:37:11;25.70;94.30
30280;DHT22;17097;50.916;5.344;2023-07-02T14:39:39;26.00;94.40
30280;DHT22;17097;50.916;5.344;2023-07-02T14:42:05;26.20;94.70
30280;DHT22;17097;50.916;5.344;2023-07-02T14:44:32;26.50;92.90
30280;DHT22;17097;50.916;5.344;2023-07-02T14:47:01;26.60;92.50
30280;DHT22;17097;50.916;5.344;2023-07-02T14:49:27;26.50;91.60
30280;DHT22;17097;50.916;5.344;2023-07-02T14:51:52;26.40;93.50
30280;DHT22;17097;50.916;5.344;2023-07-02T14:54:21;26.30;91.70
30280;DHT22;17097;50.916;5.344;2023-07-02T14:56:49;26.40;92.30
30280;DHT22;17097;50.916;5.344;2023-07-02T14:59:15;26.20;91.30
30280;DHT22;17097;50.916;5.344;2023-07-02T15:01:41;26.20;91.90
30280;DHT22;17097;50.916;5.344;2023-07-02T15:04:09;26.20;91.50
30280;DHT22;17097;50.916;5.344;2023-07-02T15:06:35;26.20;92.20
30280;DHT22;17097;50.916;5.344;2023-07-02T15:09:01;26.20;91.70
30280;DHT22;17097;50.916;5.344;2023-07-02T15:11:27;25.90;92.60
30280;DHT22;17097;50.916;5.344;2023-07-02T15:13:53;25.80;93.00
30280;DHT22;17097;50.916;5.344;2023-07-02T15:16:19;26.00;92.50
30280;DHT22;17097;50.916;5.344;2023-07-02T15:18:46;26.00;91.90
30280;DHT22;17097;50.916;5.344;2023-07-02T15:21:11;25.90;93.20
30280;DHT22;17097;50.916;5.344;2023-07-02T15:23:38;25.80;92.10
30280;DHT22;17097;50.916;5.344;2023-07-02T15:26:05;25.80;92.50
30280;DHT22;17097;50.916;5.344;2023-07-02T15:28:32;25.70;92.30
30280;DHT22;17097;50.916;5.344;2023-07-02T15:31:07;25.60;93.00